Terminal Aerodrome Forecast
Issued by NWS

Home | Current Version | Previous Version | Text Only | Print | Product List | Glossary On
Versions: 1 2 3 4 5 6 7 8 9 10 11 12 13 14 15 16 17 18 19
000
FTUS41 KGYX 260528
TAFLEB
TAF
KLEB 260528Z 2606/2706 VRB03KT P6SM BKN250
     FM262000 04004KT P6SM SCT050 BKN100
     FM270000 01005KT 4SM -SN OVC025=

USA.gov is the U.S. government's official web portal to all federal, state and local government web resources and services.